Blundale, Georgia
Current Conditions -  °F | °C
As of 4:15 PM on Saturday 20 Dec 2014 (Local Time) from KSBO Reporting Station
Overcast Overcast  
Wind Chill: 55°   Ceiling: 1200
Heat Index: 55°   Visibility: 10mi
Dew Point: 55°   Wind: 6mph
Humidity: 100%   Direction: 40°NE
Pressure: 30.15"   Gusts: NA
Location:  32.5371°N, 82.3457°W
Report Text: KSBO 202115Z AUTO 04005KT 10SM OVC012 13/13 A3015 RMK AO2
Loading
Personal Weather Stations






























Interactive Weather Map New forecast layout! Learn more

10-Day Weather Forecast

Advertisements
Track Severe Weather on mobile